Ever Legacy — 9V9290 — position and weather

sailwx.info

Track history (hours):
 
Tides and Currents Weather Stations Pressure Air Temp Water Temp Dewpoint Dewpoint Depression Visibility Wind Speed Wind Dir Waves Ship Positions

Ever Legacy

Last reported at 2018-Feb-19 06:00 UTC. Time now 2018-Feb-19 15:48 UTC.
Position N 51°00' E 164°00'.

Length 335 m; draft 13.3 m.

Type: Ship (hazmat cat D). MMSI: 566853000.

Wind from 310 at 20 knots

Barometer 996.0 mb
Air temperature -1.0 ° C
Visibility: greater than 5.4 NM
Water temperature -0.0 ° C

Date/timePositionNaut miles runAvg speedWind from/ knotsBaromVisibWave heightAir tempDewpointWater temp
2018-Feb-19 06:00N 51°00' E 164°00'22422.4 310 / 20996.0 5.4 -1.0 -0.0
2018-Feb-18 20:00N 49°06' E 159°00'29921.4 310 / 201000.0 5.4 -1.0 -0.0
2018-Feb-18 06:00N 46°06' E 153°06'21117.6 360 / 201007.0 5.4 -3.0 -0.0
2018-Feb-17 18:00N 44°00' E 149°06'35518.5 090 / 301000.0 -0.0-3.0-0.0
2018-Feb-16 22:46N 41°37' E 141°43'623.2
2018-Feb-16 22:30N 41°37' E 141°35'1223.5
2018-Feb-16 22:00N 41°37' E 141°19'1123.1
2018-Feb-16 21:31N 41°36' E 141°04'1223.4
2018-Feb-16 21:01N 41°36' E 140°48'1223.5
2018-Feb-16 20:31N 41°29' E 140°35'1223.9
2018-Feb-16 20:00N 41°22' E 140°23'1223.8
2018-Feb-16 19:30N 41°14' E 140°10'108521.4
2018-Feb-14 16:54N 30°35' E 122°07'2 0.1
2018-Feb-13 16:45N 30°37' E 122°05'0 0.0
2018-Feb-13 16:30N 30°37' E 122°05'1 1.3
2018-Feb-13 16:00N 30°37' E 122°04'2 4.1
2018-Feb-13 15:30N 30°36' E 122°06'5 8.7
2018-Feb-13 14:57N 30°34' E 122°11'4 8.9
2018-Feb-13 14:29N 30°33' E 122°16'  
Track history (hours):
 
Tides and Currents Weather Stations Pressure Air Temp Water Temp Dewpoint Dewpoint Depression Visibility Wind Speed Wind Dir Waves Ship Positions

Ever Legacy

Last reported at 2018-Feb-19 06:00 UTC. Time now 2018-Feb-19 15:48 UTC.
Position N 51°00' E 164°00'.

Length 335 m; draft 13.3 m.

Type: Ship (hazmat cat D). MMSI: 566853000.

Wind from 310 at 20 knots

Barometer 996.0 mb
Air temperature -1.0 ° C
Visibility: greater than 5.4 NM
Water temperature -0.0 ° C

Date/timePositionNaut miles runAvg speedWind from/ knotsBaromVisibWave heightAir tempDewpointWater temp
2018-Feb-19 06:00N 51°00' E 164°00'22422.4 310 / 20996.0 5.4 -1.0 -0.0
2018-Feb-18 20:00N 49°06' E 159°00'29921.4 310 / 201000.0 5.4 -1.0 -0.0
2018-Feb-18 06:00N 46°06' E 153°06'21117.6 360 / 201007.0 5.4 -3.0 -0.0
2018-Feb-17 18:00N 44°00' E 149°06'35518.5 090 / 301000.0 -0.0-3.0-0.0
2018-Feb-16 22:46N 41°37' E 141°43'623.2
2018-Feb-16 22:30N 41°37' E 141°35'1223.5
2018-Feb-16 22:00N 41°37' E 141°19'1123.1
2018-Feb-16 21:31N 41°36' E 141°04'1223.4
2018-Feb-16 21:01N 41°36' E 140°48'1223.5
2018-Feb-16 20:31N 41°29' E 140°35'1223.9
2018-Feb-16 20:00N 41°22' E 140°23'1223.8
2018-Feb-16 19:30N 41°14' E 140°10'108521.4
2018-Feb-14 16:54N 30°35' E 122°07'2 0.1
2018-Feb-13 16:45N 30°37' E 122°05'0 0.0
2018-Feb-13 16:30N 30°37' E 122°05'1 1.3
2018-Feb-13 16:00N 30°37' E 122°04'2 4.1
2018-Feb-13 15:30N 30°36' E 122°06'5 8.7
2018-Feb-13 14:57N 30°34' E 122°11'4 8.9
2018-Feb-13 14:29N 30°33' E 122°16'  

Dump ship's entire track history